Time;durP1;ratioP1;P1;durP2;ratioP2;P2;SDS_P1;SDS_P2;PMS_P1;PMS_P2;Temp;Humidity;BMP_temperature;BMP_pressure;BME280_temperature;BME280_humidity;BME280_pressure;Samples;Min_cycle;Max_cycle;Signal;HPM_P1;HPM_P2
2022/12/03 00:00:06;;;;;;;7.53;3.10;;;;;;;5.58;68.05;100722.06;4358155;32;32766;-83
2022/12/03 00:02:40;;;;;;;4.30;1.98;;;;;;;5.72;67.80;100728.06;4375952;32;33685;-83
2022/12/03 00:05:09;;;;;;;1.25;1.08;;;;;;;5.87;67.20;100729.66;4360030;32;33976;-83
2022/12/03 00:07:36;;;;;;;2.03;1.92;;;;;;;5.59;68.25;100729.91;4344814;32;33743;-83
2022/12/03 00:10:05;;;;;;;1.17;1.17;;;;;;;5.72;67.87;100733.28;4355247;32;32459;-83
2022/12/03 00:12:33;;;;;;;2.03;1.92;;;;;;;5.34;69.00;100731.84;4359334;32;33772;-83
2022/12/03 00:15:01;;;;;;;0.88;0.88;;;;;;;5.57;68.54;100734.31;4373292;32;33603;-84
2022/12/03 00:17:29;;;;;;;4.78;3.55;;;;;;;5.80;67.52;100736.72;4368173;32;96029;-83
2022/12/03 00:19:57;;;;;;;1.08;1.08;;;;;;;5.80;67.34;100728.87;4351447;32;33741;-83
2022/12/03 00:22:24;;;;;;;1.20;1.20;;;;;;;5.83;67.46;100735.81;4372812;32;33112;-84
2022/12/03 00:24:52;;;;;;;0.30;0.30;;;;;;;5.65;67.88;100739.50;4363928;32;33069;-83
2022/12/03 00:27:20;;;;;;;2.12;2.03;;;;;;;5.48;68.59;100734.38;4367249;32;32811;-84
2022/12/03 00:29:48;;;;;;;3.33;3.10;;;;;;;5.67;68.11;100735.09;4370748;32;31870;-84
2022/12/03 00:32:16;;;;;;;3.40;2.05;;;;;;;5.61;68.73;100737.78;4369001;32;33938;-86
2022/12/03 00:34:44;;;;;;;2.05;1.48;;;;;;;5.77;68.04;100739.34;4359178;32;33627;-86
2022/12/03 00:37:11;;;;;;;1.50;1.40;;;;;;;5.64;68.33;100742.97;4371405;32;34458;-86
2022/12/03 00:39:40;;;;;;;1.98;1.87;;;;;;;5.79;67.60;100737.63;4371333;32;33058;-86
2022/12/03 00:42:07;;;;;;;1.30;1.20;;;;;;;5.30;69.40;100737.12;4364724;32;33920;-85
2022/12/03 00:44:35;;;;;;;1.80;1.75;;;;;;;5.71;68.20;100746.41;4371874;32;33617;-85
2022/12/03 00:47:03;;;;;;;3.05;2.85;;;;;;;5.80;67.74;100741.97;4364574;32;32987;-85
2022/12/03 00:49:31;;;;;;;1.08;1.08;;;;;;;5.78;67.66;100742.84;4357679;32;32697;-87
2022/12/03 00:51:58;;;;;;;4.68;3.47;;;;;;;5.63;68.49;100754.34;4351754;32;33300;-86
2022/12/03 00:54:27;;;;;;;2.62;2.47;;;;;;;5.71;68.15;100742.03;4369523;32;33084;-85
2022/12/03 00:56:58;;;;;;;1.80;1.70;;;;;;;5.96;67.36;100742.72;4368972;32;34476;-85
2022/12/03 00:59:28;;;;;;;3.17;2.20;;;;;;;6.09;67.06;100740.84;4360377;32;35541;-86
2022/12/03 01:01:56;;;;;;;2.67;2.42;;;;;;;6.11;66.69;100746.94;4362764;32;34183;-85
2022/12/03 01:04:24;;;;;;;1.15;1.12;;;;;;;5.86;67.38;100736.66;4370303;32;34024;-86
2022/12/03 01:06:52;;;;;;;1.55;1.27;;;;;;;5.80;67.63;100741.09;4363586;32;32330;-85
2022/12/03 01:09:19;;;;;;;1.83;1.73;;;;;;;5.93;67.57;100742.72;4357376;32;32455;-83
2022/12/03 01:11:47;;;;;;;9.02;2.15;;;;;;;5.72;67.57;100738.53;4358649;32;34028;-84
2022/12/03 01:14:17;;;;;;;5.03;3.03;;;;;;;5.56;68.64;100737.81;4368058;32;34092;-83
2022/12/03 01:16:46;;;;;;;1.27;1.27;;;;;;;5.55;68.76;100738.66;4357432;32;33044;-85
2022/12/03 01:19:15;;;;;;;0.57;0.57;;;;;;;5.29;69.93;100738.00;4356655;32;32338;-84
2022/12/03 01:21:48;;;;;;;2.15;1.90;;;;;;;5.74;68.24;100734.12;4360432;32;33781;-84
2022/12/03 01:24:17;;;;;;;9.15;2.62;;;;;;;5.63;68.87;100738.63;4370800;32;33790;-84
2022/12/03 01:26:45;;;;;;;1.40;1.30;;;;;;;5.69;68.68;100735.94;4351149;32;33970;-83
2022/12/03 01:29:13;;;;;;;1.15;1.15;;;;;;;5.69;68.78;100738.56;4357160;32;33171;-84
2022/12/03 01:34:27;;;;;;;2.00;1.90;;;;;;;5.78;68.45;100743.72;4357080;32;33151;-83
2022/12/03 01:36:55;;;;;;;1.23;1.12;;;;;;;5.97;68.19;100744.44;4355898;32;32041;-83
2022/12/03 01:39:22;;;;;;;1.27;1.27;;;;;;;5.90;68.31;100746.22;4369820;32;33405;-84
2022/12/03 01:41:51;;;;;;;14.45;2.80;;;;;;;5.99;67.63;100747.06;4369751;32;33801;-86
2022/12/03 01:44:24;;;;;;;2.53;2.42;;;;;;;5.66;69.45;100749.06;4372150;32;33884;-86
2022/12/03 01:46:53;;;;;;;2.42;2.22;;;;;;;6.04;67.61;100746.13;4356165;32;32880;-86
2022/12/03 01:49:25;;;;;;;0.80;0.80;;;;;;;6.20;67.16;100752.06;4375714;32;32547;-85
2022/12/03 01:51:53;;;;;;;2.67;2.47;;;;;;;6.13;67.36;100745.19;4374540;32;32943;-85
2022/12/03 01:54:26;;;;;;;2.55;2.35;;;;;;;5.96;67.87;100747.09;4369270;32;34487;-85
2022/12/03 01:56:54;;;;;;;1.90;1.80;;;;;;;6.05;67.89;100745.25;4356161;32;34164;-85
2022/12/03 01:59:31;;;;;;;2.25;2.05;;;;;;;6.11;67.59;100746.94;4357851;32;33329;-86
2022/12/03 02:02:07;;;;;;;1.55;1.45;;;;;;;6.00;68.10;100738.31;4356637;32;32748;-86
2022/12/03 02:04:35;;;;;;;3.42;2.50;;;;;;;6.19;66.78;100733.75;4356422;32;33516;-86
2022/12/03 02:07:23;;;;;;;2.65;2.53;;;;;;;6.23;67.18;100735.47;4358458;32;33264;-86
2022/12/03 02:09:52;;;;;;;2.97;2.83;;;;;;;6.20;67.37;100731.09;4345830;32;32795;-85
2022/12/03 02:12:27;;;;;;;3.42;1.85;;;;;;;6.25;66.88;100734.53;4369455;32;32888;-85
2022/12/03 02:14:55;;;;;;;4.85;2.92;;;;;;;6.09;67.98;100735.59;4377080;32;34106;-87
2022/12/03 02:17:23;;;;;;;1.20;1.15;;;;;;;6.05;67.42;100737.38;4359446;32;33865;-87
2022/12/03 02:19:51;;;;;;;6.25;3.85;;;;;;;6.15;67.12;100732.91;4372082;32;34105;-85
2022/12/03 02:22:30;;;;;;;2.65;2.45;;;;;;;6.06;67.55;100738.25;4371875;32;33705;-85
2022/12/03 02:24:58;;;;;;;1.58;1.45;;;;;;;6.35;66.87;100730.06;4376940;32;33531;-85
2022/12/03 02:27:28;;;;;;;2.00;1.90;;;;;;;6.54;65.79;100735.94;4376324;32;33266;-85
2022/12/03 02:29:56;;;;;;;2.33;2.12;;;;;;;6.19;67.13;100741.63;4352279;32;32342;-85
2022/12/03 02:32:24;;;;;;;3.40;1.27;;;;;;;5.82;68.13;100739.31;4384737;32;33760;-84
2022/12/03 02:34:51;;;;;;;3.50;3.20;;;;;;;5.79;68.22;100724.50;4357421;32;33883;-84
2022/12/03 02:37:23;;;;;;;0.75;0.65;;;;;;;6.06;67.83;100738.25;4359569;32;34025;-84
2022/12/03 02:39:53;;;;;;;2.63;2.43;;;;;;;6.20;67.15;100730.22;4358593;32;31656;-84
2022/12/03 02:42:34;;;;;;;3.60;2.00;;;;;;;6.18;66.89;100726.78;4374038;32;33952;-84
2022/12/03 02:45:11;;;;;;;1.12;1.12;;;;;;;6.01;67.37;100730.41;4373838;32;34763;-84
2022/12/03 02:47:45;;;;;;;1.67;1.62;;;;;;;5.87;68.35;100734.91;4370489;32;33704;-84
2022/12/03 02:50:14;;;;;;;2.55;2.33;;;;;;;5.94;67.89;100744.50;4373995;32;34077;-86
2022/12/03 02:52:43;;;;;;;1.60;1.50;;;;;;;6.03;67.90;100733.03;4357821;32;32737;-86
2022/12/03 02:55:11;;;;;;;1.70;1.65;;;;;;;6.25;66.64;100729.28;4364469;32;33819;-86
2022/12/03 02:57:39;;;;;;;6.25;5.60;;;;;;;6.00;67.69;100730.44;4359665;32;32950;-86
2022/12/03 03:00:09;;;;;;;3.33;3.05;;;;;;;6.21;66.92;100734.59;4360084;32;32645;-86
2022/12/03 03:02:37;;;;;;;5.60;2.70;;;;;;;6.21;66.97;100729.34;4372376;32;34618;-85
2022/12/03 03:05:07;;;;;;;1.37;1.23;;;;;;;6.35;65.86;100728.28;4358669;32;33065;-85
2022/12/03 03:07:35;;;;;;;2.45;2.35;;;;;;;6.39;65.78;100732.63;4370999;32;33074;-84
2022/12/03 03:10:04;;;;;;;2.10;1.70;;;;;;;6.01;66.87;100732.19;4384420;32;32937;-84
2022/12/03 03:12:32;;;;;;;3.87;3.00;;;;;;;5.99;66.89;100734.81;4376686;32;33125;-84
2022/12/03 03:15:06;;;;;;;3.58;3.10;;;;;;;5.64;68.21;100751.69;4383700;32;33939;-84
2022/12/03 03:17:34;;;;;;;5.87;3.30;;;;;;;5.83;67.64;100735.81;4375242;32;33150;-84
2022/12/03 03:20:04;;;;;;;6.85;3.55;;;;;;;5.83;67.25;100739.28;4356372;32;33789;-85
2022/12/03 03:22:38;;;;;;;2.28;1.42;;;;;;;6.01;67.01;100740.03;4376078;32;33713;-84
2022/12/03 03:25:11;;;;;;;2.37;1.80;;;;;;;5.61;68.19;100740.38;4376921;32;34800;-84
2022/12/03 03:27:39;;;;;;;3.37;3.03;;;;;;;5.78;67.59;100746.34;4363705;32;33685;-84
2022/12/03 03:30:09;;;;;;;2.70;2.50;;;;;;;6.02;66.56;100736.53;4360178;32;32354;-84
2022/12/03 03:32:37;;;;;;;4.07;3.10;;;;;;;5.97;67.05;100738.34;4370967;32;34569;-85
2022/12/03 03:35:08;;;;;;;0.80;0.80;;;;;;;5.89;67.00;100736.62;4363539;32;32797;-84
2022/12/03 03:37:37;;;;;;;3.43;2.90;;;;;;;5.34;69.00;100742.34;4356208;32;33629;-85
2022/12/03 03:40:05;;;;;;;2.45;1.95;;;;;;;6.00;66.74;100739.19;4360129;32;32557;-83
2022/12/03 03:42:33;;;;;;;3.47;2.17;;;;;;;5.70;67.62;100732.44;4361470;32;34108;-83
2022/12/03 03:45:01;;;;;;;3.47;3.25;;;;;;;5.59;68.07;100731.66;4359318;32;34433;-83
2022/12/03 03:47:29;;;;;;;0.85;0.85;;;;;;;6.03;66.52;100733.03;4371425;32;34451;-83
2022/12/03 03:49:56;;;;;;;1.35;1.35;;;;;;;6.05;66.20;100737.38;4371461;32;33390;-83
2022/12/03 03:52:24;;;;;;;4.25;3.58;;;;;;;5.74;67.70;100736.75;4357663;32;34172;-83
2022/12/03 03:54:52;;;;;;;2.10;1.87;;;;;;;5.69;67.31;100735.06;4359200;32;34380;-83
2022/12/03 03:57:20;;;;;;;3.92;3.70;;;;;;;5.56;68.08;100739.56;4371066;32;33494;-82
2022/12/03 03:59:49;;;;;;;5.45;3.15;;;;;;;5.58;67.94;100736.03;4385453;32;32966;-83
2022/12/03 04:02:22;;;;;;;2.80;1.73;;;;;;;5.36;68.86;100732.72;4369929;32;33961;-83
2022/12/03 04:04:50;;;;;;;3.15;2.33;;;;;;;5.48;68.38;100737.00;4376659;32;34581;-83
2022/12/03 04:07:18;;;;;;;4.50;2.50;;;;;;;5.60;67.57;100738.63;4358565;32;35688;-83
2022/12/03 04:09:46;;;;;;;4.78;2.78;;;;;;;5.52;68.10;100738.72;4360773;32;33669;-83
2022/12/03 04:15:00;;;;;;;2.03;1.87;;;;;;;6.01;66.49;100745.28;4362900;32;33153;-82
2022/12/03 04:17:28;;;;;;;8.00;2.70;;;;;;;5.59;67.81;100736.91;4358369;32;33449;-83
2022/12/03 04:19:56;;;;;;;2.70;2.58;;;;;;;5.68;67.75;100733.34;4357038;32;33506;-83
2022/12/03 04:22:38;;;;;;;2.50;2.35;;;;;;;5.99;66.49;100733.97;4383773;32;33918;-84
2022/12/03 04:30:41;;;;;;;2.17;1.80;;;;;;;5.93;66.92;100734.88;4361942;32;32366;-84
2022/12/03 04:35:55;;;;;;;17.08;4.75;;;;;;;5.68;67.81;100738.56;4358497;32;33039;-83
2022/12/03 04:38:23;;;;;;;1.75;1.65;;;;;;;5.75;67.70;100746.38;4376303;32;32578;-83
2022/12/03 04:41:00;;;;;;;5.75;3.12;;;;;;;5.54;68.69;100746.53;4352933;32;33025;-84
2022/12/03 04:43:29;;;;;;;1.48;1.37;;;;;;;5.86;67.29;100741.91;4372807;32;33097;-84
2022/12/03 04:45:56;;;;;;;10.90;6.03;;;;;;;5.74;67.65;100742.00;4366102;32;32874;-84
2022/12/03 04:48:24;;;;;;;1.50;1.40;;;;;;;5.86;67.31;100741.91;4371169;32;33801;-84
2022/12/03 04:50:52;;;;;;;1.08;1.00;;;;;;;6.04;66.55;100740.03;4369577;32;32381;-84
2022/12/03 04:53:20;;;;;;;2.05;1.95;;;;;;;5.81;67.13;100743.69;4358494;32;32865;-84
2022/12/03 04:55:47;;;;;;;4.03;3.62;;;;;;;5.96;66.64;100736.59;4371495;32;33757;-85
2022/12/03 04:58:16;;;;;;;2.25;2.15;;;;;;;5.51;68.54;100743.97;4370132;32;32634;-83
2022/12/03 05:00:43;;;;;;;5.05;1.80;;;;;;;5.66;67.88;100738.59;4362788;32;33227;-84
2022/12/03 05:03:11;;;;;;;3.03;2.37;;;;;;;5.51;68.41;100743.97;4375998;32;32909;-83
2022/12/03 05:05:39;;;;;;;2.85;2.65;;;;;;;5.65;67.79;100744.72;4357634;32;33715;-84
2022/12/03 05:08:07;;;;;;;7.62;1.30;;;;;;;5.38;68.90;100754.53;4357992;32;33831;-85
2022/12/03 05:10:34;;;;;;;2.28;2.17;;;;;;;5.15;69.70;100756.44;4383943;32;33689;-85
2022/12/03 05:13:02;;;;;;;5.32;2.40;;;;;;;5.27;69.00;100755.47;4360062;32;33603;-85
2022/12/03 05:15:30;;;;;;;3.50;3.30;;;;;;;5.31;69.18;100760.69;4346203;32;33358;-85
2022/12/03 05:17:57;;;;;;;0.98;0.98;;;;;;;5.45;68.73;100754.47;4371667;32;32913;-85
2022/12/03 05:20:40;;;;;;;2.30;2.20;;;;;;;5.35;69.17;100759.78;4355506;32;34108;-84
2022/12/03 05:23:12;;;;;;;2.92;1.17;;;;;;;5.56;68.35;100758.78;4368455;32;33254;-84
2022/12/03 05:25:40;;;;;;;;;;;;;;;5.18;69.12;100768.66;4357355;32;33251;-84
2022/12/03 05:28:07;;;;;;;0.90;0.90;;;;;;;5.03;69.97;100772.19;4361327;32;33042;-84
2022/12/03 05:30:35;;;;;;;1.75;1.65;;;;;;;5.30;69.15;100764.19;4369342;32;33394;-84
2022/12/03 05:33:03;;;;;;;1.08;1.05;;;;;;;5.18;69.68;100766.91;4376118;32;33120;-84
2022/12/03 05:35:31;;;;;;;2.67;2.58;;;;;;;5.27;69.17;100761.59;4358065;32;34721;-83
2022/12/03 05:37:58;;;;;;;1.48;1.17;;;;;;;5.27;69.27;100772.06;4357132;32;32910;-83
2022/12/03 05:40:26;;;;;;;2.03;1.25;;;;;;;5.20;69.16;100769.50;4368260;32;33342;-84
2022/12/03 05:42:53;;;;;;;2.78;2.55;;;;;;;5.36;68.80;100769.41;4361736;32;34279;-83
2022/12/03 05:45:25;;;;;;;2.53;2.42;;;;;;;5.51;67.98;100767.53;4370318;32;33988;-83
2022/12/03 05:47:55;;;;;;;2.58;2.40;;;;;;;5.21;69.04;100777.31;4373046;32;33777;-83
2022/12/03 05:50:26;;;;;;;2.83;2.62;;;;;;;5.28;68.91;100778.19;4360008;32;31636;-84
2022/12/03 05:52:54;;;;;;;1.35;1.08;;;;;;;5.27;69.71;100785.16;4357698;32;33537;-83
2022/12/03 05:55:22;;;;;;;0.47;0.47;;;;;;;5.60;68.02;100785.78;4358241;32;34418;-83
2022/12/03 05:57:50;;;;;;;4.93;4.45;;;;;;;5.42;68.86;100796.44;4369454;32;32658;-83
2022/12/03 06:00:28;;;;;;;1.55;1.55;;;;;;;5.62;67.99;100792.78;4382583;32;32908;-84
2022/12/03 06:02:56;;;;;;;11.40;5.07;;;;;;;5.32;69.09;100791.25;4358456;32;32351;-86
2022/12/03 06:05:24;;;;;;;1.87;1.87;;;;;;;5.35;69.00;100788.59;4370867;32;33969;-84
2022/12/03 06:07:52;;;;;;;1.67;1.40;;;;;;;5.64;68.13;100790.13;4358840;32;33858;-84
2022/12/03 06:10:22;;;;;;;2.97;2.70;;;;;;;5.81;67.34;100785.63;4363779;32;32605;-85
2022/12/03 06:12:50;;;;;;;1.90;1.80;;;;;;;5.91;66.94;100786.41;4358798;32;34538;-84
2022/12/03 06:15:18;;;;;;;0.82;0.80;;;;;;;5.56;68.07;100787.59;4370889;32;34717;-84
2022/12/03 06:17:46;;;;;;;1.08;1.08;;;;;;;5.65;68.19;100786.66;4371446;32;33833;-84
2022/12/03 06:20:16;;;;;;;3.67;2.95;;;;;;;5.82;68.04;100787.38;4373742;32;32947;-84
2022/12/03 06:22:44;;;;;;;1.48;1.40;;;;;;;6.05;66.87;100775.84;4371336;32;32468;-84
2022/12/03 06:25:15;;;;;;;2.75;2.28;;;;;;;5.74;67.55;100772.56;4350684;32;33091;-83
2022/12/03 06:27:43;;;;;;;5.10;4.60;;;;;;;5.26;69.50;100777.31;4371622;32;33050;-84
2022/12/03 06:30:12;;;;;;;3.33;3.12;;;;;;;5.48;68.82;100770.19;4364053;32;32794;-83
2022/12/03 06:32:40;;;;;;;2.42;2.25;;;;;;;5.75;68.07;100775.22;4357640;32;32693;-84
2022/12/03 06:35:08;;;;;;;1.67;1.58;;;;;;;5.76;67.96;100776.94;4366635;32;33222;-84
2022/12/03 06:37:36;;;;;;;2.80;2.58;;;;;;;5.92;67.75;100777.69;4381041;32;33846;-84
2022/12/03 06:40:04;;;;;;;4.25;2.75;;;;;;;5.74;67.89;100783.94;4375249;32;33543;-84
2022/12/03 06:42:32;;;;;;;0.98;0.98;;;;;;;6.07;66.95;100774.06;4371098;32;32378;-84
2022/12/03 06:44:59;;;;;;;2.33;2.22;;;;;;;5.92;67.21;100771.59;4364850;32;33126;-84
2022/12/03 06:47:29;;;;;;;3.17;2.97;;;;;;;6.13;66.51;100785.38;4363789;32;33477;-83
2022/12/03 06:49:57;;;;;;;2.53;2.05;;;;;;;5.57;68.45;100783.22;4364416;32;32109;-83
2022/12/03 06:52:24;;;;;;;3.42;2.15;;;;;;;5.78;68.14;100780.41;4373259;32;35032;-84
2022/12/03 06:54:52;;;;;;;2.10;1.83;;;;;;;6.11;66.79;100781.00;4367065;32;33892;-83
2022/12/03 06:57:20;;;;;;;1.45;1.45;;;;;;;5.67;68.00;100790.13;4369555;32;33310;-83
2022/12/03 06:59:48;;;;;;;5.82;3.87;;;;;;;5.63;68.65;100791.88;4370223;32;34156;-83
2022/12/03 07:02:16;;;;;;;5.45;2.70;;;;;;;5.82;68.38;100789.13;4353103;32;33530;-83
2022/12/03 07:04:44;;;;;;;2.83;2.62;;;;;;;5.85;67.97;100792.59;4363756;32;34149;-83
2022/12/03 07:07:16;;;;;;;3.62;3.33;;;;;;;5.93;67.85;100789.03;4363701;32;32919;-83
2022/12/03 07:09:44;;;;;;;4.40;2.60;;;;;;;5.96;67.90;100786.41;4385570;32;33504;-83
2022/12/03 07:12:12;;;;;;;3.87;3.10;;;;;;;6.07;67.21;100787.16;4392927;32;33809;-83
2022/12/03 07:14:40;;;;;;;1.67;1.58;;;;;;;6.33;66.43;100785.16;4371655;32;34339;-83
2022/12/03 07:17:08;;;;;;;1.83;1.75;;;;;;;6.01;67.15;100795.97;4371660;32;32797;-83
2022/12/03 07:19:35;;;;;;;3.58;2.97;;;;;;;5.96;67.57;100789.91;4361989;32;33479;-83
2022/12/03 07:22:03;;;;;;;1.00;0.98;;;;;;;6.03;67.77;100788.06;4361189;32;33832;-83
2022/12/03 07:24:31;;;;;;;6.32;2.30;;;;;;;6.25;67.38;100780.88;4351001;32;33163;-83
2022/12/03 07:26:59;;;;;;;2.95;2.80;;;;;;;6.28;67.27;100784.34;4358945;32;32439;-83
2022/12/03 07:29:26;;;;;;;0.77;0.77;;;;;;;6.22;67.29;100780.91;4361422;32;32492;-84
2022/12/03 07:31:54;;;;;;;4.82;3.20;;;;;;;6.36;67.24;100785.16;4354759;32;32865;-83
2022/12/03 07:34:22;;;;;;;2.85;2.55;;;;;;;6.29;67.20;100793.94;4358527;32;33733;-83
2022/12/03 07:36:49;;;;;;;6.00;3.35;;;;;;;6.10;68.02;100793.25;4374328;32;33126;-82
2022/12/03 07:39:17;;;;;;;4.43;3.50;;;;;;;6.27;67.53;100803.59;4357219;32;32287;-85
2022/12/03 07:41:45;;;;;;;4.80;3.72;;;;;;;6.52;66.59;100792.84;4370029;32;34083;-85
2022/12/03 07:44:13;;;;;;;4.68;4.10;;;;;;;6.61;66.41;100785.72;4358260;32;32509;-85
2022/12/03 07:46:42;;;;;;;13.85;3.25;;;;;;;6.52;66.61;100775.34;4381580;32;33120;-84
2022/12/03 07:49:11;;;;;;;1.62;1.55;;;;;;;6.17;67.50;100778.31;4345416;32;32775;-84
2022/12/03 07:51:39;;;;;;;1.62;1.52;;;;;;;6.55;66.18;100777.03;4372191;32;33949;-84
2022/12/03 07:54:10;;;;;;;1.27;1.27;;;;;;;6.44;66.94;100781.56;4370163;32;33591;-85
2022/12/03 07:56:37;;;;;;;4.55;2.55;;;;;;;6.53;66.78;100771.81;4346377;32;33629;-84
2022/12/03 07:59:05;;;;;;;3.75;2.62;;;;;;;6.58;66.98;100779.63;4374757;32;32124;-84
2022/12/03 08:01:33;;;;;;;1.83;1.73;;;;;;;6.93;65.69;100772.22;4362563;32;33238;-85
2022/12/03 08:04:01;;;;;;;2.37;2.20;;;;;;;6.63;66.82;100773.44;4368383;32;33909;-84
2022/12/03 08:06:29;;;;;;;3.12;2.85;;;;;;;6.54;67.08;100778.81;4368823;32;34579;-84
2022/12/03 08:08:57;;;;;;;4.00;3.35;;;;;;;6.47;67.52;100781.53;4373127;32;33354;-84
2022/12/03 08:11:27;;;;;;;2.80;2.50;;;;;;;6.25;67.66;100786.13;4372939;32;33165;-84
2022/12/03 08:13:56;;;;;;;2.97;2.33;;;;;;;6.53;67.04;100786.69;4358642;32;32598;-83
2022/12/03 08:16:24;;;;;;;2.03;1.92;;;;;;;6.44;67.44;100799.91;4359169;32;34653;-85
2022/12/03 08:18:53;;;;;;;4.37;3.60;;;;;;;6.35;68.07;100799.13;4363709;32;32299;-84
2022/12/03 08:21:21;;;;;;;0.30;0.30;;;;;;;6.48;67.42;100804.25;4349699;32;32666;-85
2022/12/03 08:23:49;;;;;;;3.53;3.30;;;;;;;6.58;67.42;100806.75;4356820;32;33094;-85
2022/12/03 08:26:23;;;;;;;3.60;3.40;;;;;;;6.32;68.09;100801.78;4368649;32;34315;-85
2022/12/03 08:28:53;;;;;;;2.87;2.67;;;;;;;7.06;65.42;100790.41;4364819;32;33711;-84
2022/12/03 08:31:24;;;;;;;1.45;1.37;;;;;;;7.17;64.97;100780.66;4358912;32;32720;-84
2022/12/03 08:34:26;;;;;;;1.50;1.48;;;;;;;6.47;67.36;100787.62;4356104;32;32950;-84
2022/12/03 08:37:01;;;;;;;2.45;1.83;;;;;;;6.64;66.81;100780.44;4365544;32;33651;-85
2022/12/03 08:39:34;;;;;;;3.83;3.50;;;;;;;6.96;65.86;100789.66;4356483;32;32387;-85
2022/12/03 08:45:38;;;;;;;6.18;4.40;;;;;;;6.31;67.97;100801.78;4373766;32;32371;-85
2022/12/03 08:48:36;;;;;;;4.15;2.53;;;;;;;6.11;68.93;100804.62;4369458;32;34621;-85
2022/12/03 08:51:10;;;;;;;2.37;2.03;;;;;;;6.24;68.47;100821.09;4361526;32;31879;-85
2022/12/03 08:53:49;;;;;;;3.85;3.25;;;;;;;6.21;67.97;100816.75;4380043;32;31904;-84
2022/12/03 08:56:23;;;;;;;1.83;1.73;;;;;;;6.45;67.58;100825.25;4357416;32;33378;-85
2022/12/03 08:59:26;;;;;;;1.17;1.15;;;;;;;6.59;67.05;100820.72;4367792;32;35188;-85
2022/12/03 09:01:55;;;;;;;3.58;3.30;;;;;;;6.47;67.51;100823.50;4354797;32;32494;-85
2022/12/03 09:04:43;;;;;;;2.55;2.40;;;;;;;6.72;66.80;100819.72;4369231;32;34761;-85
2022/12/03 09:07:10;;;;;;;3.22;3.03;;;;;;;6.71;66.95;100817.97;4370079;32;33661;-84
2022/12/03 09:09:39;;;;;;;5.20;2.37;;;;;;;6.26;68.09;100808.84;4370074;32;35576;-85
2022/12/03 09:12:06;;;;;;;1.70;1.65;;;;;;;6.62;67.20;100810.22;4357538;32;32879;-85
2022/12/03 09:14:34;;;;;;;3.10;2.90;;;;;;;6.57;67.48;100809.41;4363064;32;33976;-84
2022/12/03 09:17:02;;;;;;;4.47;4.15;;;;;;;6.16;68.59;100805.44;4359610;32;34585;-84
2022/12/03 09:19:30;;;;;;;7.53;3.40;;;;;;;6.53;68.12;100798.06;4370426;32;33249;-85
2022/12/03 09:21:57;;;;;;;5.12;4.70;;;;;;;6.69;67.65;100798.75;4360743;32;32606;-85
2022/12/03 09:24:25;;;;;;;5.47;4.97;;;;;;;6.83;67.75;100802.06;4358796;32;32475;-85
2022/12/03 09:26:53;;;;;;;11.60;5.30;;;;;;;6.73;67.03;100805.69;4370830;32;33642;-85
2022/12/03 09:29:20;;;;;;;1.30;1.08;;;;;;;7.05;66.67;100792.16;4375054;32;33370;-84
2022/12/03 09:31:48;;;;;;;5.80;5.05;;;;;;;6.82;67.65;100795.09;4392620;32;33048;-85
2022/12/03 09:34:16;;;;;;;3.40;3.10;;;;;;;6.61;67.89;100790.13;4369535;32;34579;-85
2022/12/03 09:36:43;;;;;;;3.22;2.95;;;;;;;6.98;66.69;100789.63;4349164;32;33431;-85
2022/12/03 09:39:11;;;;;;;3.53;3.25;;;;;;;6.55;67.62;100791.06;4371979;32;34302;-86
2022/12/03 09:41:38;;;;;;;4.35;3.97;;;;;;;7.00;66.87;100778.22;4366326;32;32754;-85
2022/12/03 09:44:06;;;;;;;3.50;3.30;;;;;;;7.01;66.60;100781.72;4371470;32;33379;-85
2022/12/03 09:46:44;;;;;;;3.83;3.40;;;;;;;6.91;66.89;100787.09;4376689;32;33033;-84
2022/12/03 09:49:12;;;;;;;3.47;3.20;;;;;;;7.36;64.83;100782.09;4373019;32;33838;-85
2022/12/03 09:51:43;;;;;;;1.62;1.52;;;;;;;7.21;65.37;100781.44;4374059;32;31707;-85
2022/12/03 09:54:23;;;;;;;2.78;2.55;;;;;;;7.26;66.00;100780.47;4370759;32;32813;-85
2022/12/03 09:56:53;;;;;;;3.70;3.40;;;;;;;7.38;65.83;100775.06;4367978;32;33714;-85
2022/12/03 09:59:22;;;;;;;5.10;4.50;;;;;;;7.21;66.29;100779.69;4372407;32;34640;-85
2022/12/03 10:01:54;;;;;;;4.20;3.03;;;;;;;7.15;65.60;100771.91;4368400;32;32380;-85
2022/12/03 10:04:22;;;;;;;3.33;2.58;;;;;;;7.50;64.71;100765.25;4374476;32;32662;-85
2022/12/03 10:06:50;;;;;;;1.05;1.05;;;;;;;7.43;64.73;100757.47;4361238;32;33433;-85
2022/12/03 10:09:22;;;;;;;2.03;1.95;;;;;;;7.03;65.79;100761.59;4373770;32;33213;-85
2022/12/03 10:11:56;;;;;;;2.28;2.12;;;;;;;7.37;64.96;100765.44;4347739;32;32814;-85
2022/12/03 10:14:24;;;;;;;2.92;2.70;;;;;;;7.52;65.22;100766.09;4370786;32;33342;-85
2022/12/03 10:16:52;;;;;;;1.62;1.60;;;;;;;7.67;64.29;100757.97;4374491;32;31880;-85
2022/12/03 10:19:28;;;;;;;2.47;2.35;;;;;;;7.76;63.72;100755.19;4370657;32;32350;-84
2022/12/03 10:21:56;;;;;;;5.85;2.12;;;;;;;7.48;67.22;100749.50;4360550;32;32347;-86
2022/12/03 10:24:27;;;;;;;3.05;2.15;;;;;;;7.85;64.68;100747.12;4376257;32;34059;-85
2022/12/03 10:26:57;;;;;;;4.90;1.80;;;;;;;8.24;63.03;100742.03;4376774;32;33146;-88
2022/12/03 10:29:27;;;;;;;6.05;5.45;;;;;;;7.79;63.16;100744.63;4384418;32;33917;-85
2022/12/03 10:32:08;;;;;;;3.15;2.90;;;;;;;7.46;64.68;100730.28;4360006;32;32871;-84
2022/12/03 10:34:38;;;;;;;3.62;1.65;;;;;;;7.28;65.00;100728.81;4371733;32;34142;-84
2022/12/03 10:37:20;;;;;;;4.20;3.80;;;;;;;7.21;65.55;100734.16;4373823;32;33288;-84
2022/12/03 10:39:54;;;;;;;1.62;1.60;;;;;;;7.35;64.89;100721.69;4371838;32;33393;-84
2022/12/03 10:42:28;;;;;;;7.78;3.85;;;;;;;7.27;65.44;100724.44;4383646;32;34041;-84
2022/12/03 10:45:15;;;;;;;4.93;4.37;;;;;;;7.75;63.59;100727.16;4362931;32;33287;-84
2022/12/03 10:48:02;;;;;;;1.50;1.35;;;;;;;7.99;63.71;100722.38;4372246;32;34022;-85
2022/12/03 10:50:30;;;;;;;4.25;3.12;;;;;;;8.04;63.18;100723.16;4363305;32;31584;-84
2022/12/03 10:52:58;;;;;;;4.05;2.87;;;;;;;7.83;63.48;100722.66;4374998;32;33485;-84
2022/12/03 10:55:28;;;;;;;4.32;2.33;;;;;;;8.14;62.63;100706.28;4372691;32;33991;-85
2022/12/03 10:58:03;;;;;;;2.53;2.33;;;;;;;7.98;62.94;100708.34;4358055;32;33309;-84
2022/12/03 11:00:31;;;;;;;10.88;3.42;;;;;;;8.03;63.18;100700.38;4359982;32;34854;-84
2022/12/03 11:02:59;;;;;;;2.20;2.10;;;;;;;8.21;62.47;100697.38;4373822;32;35206;-84
2022/12/03 11:05:27;;;;;;;1.35;1.27;;;;;;;8.35;62.40;100699.72;4373677;32;32613;-84
2022/12/03 11:07:55;;;;;;;1.08;1.08;;;;;;;8.31;64.24;100695.41;4368848;32;33901;-84
2022/12/03 11:10:23;;;;;;;2.62;2.45;;;;;;;8.98;60.29;100679.09;4346263;32;33097;-87
2022/12/03 11:13:24;;;;;;;2.85;2.75;;;;;;;8.60;60.73;100693.09;4387763;32;32323;-85
2022/12/03 11:15:53;;;;;;;4.13;3.10;;;;;;;8.61;61.42;100683.44;4360902;32;32776;-84
2022/12/03 11:18:35;;;;;;;4.07;3.87;;;;;;;8.87;60.96;100685.47;4373498;32;32856;-84
2022/12/03 11:21:08;;;;;;;1.70;1.58;;;;;;;9.24;59.71;100675.81;4375561;32;33591;-82
2022/12/03 11:23:45;;;;;;;0.77;0.77;;;;;;;9.19;59.41;100666.28;4374539;32;32746;-83
2022/12/03 11:26:13;;;;;;;0.93;0.93;;;;;;;9.56;57.70;100662.75;4372566;32;33375;-83
2022/12/03 11:28:45;;;;;;;3.25;2.60;;;;;;;9.73;57.67;100660.53;4356188;32;32901;-83
2022/12/03 11:31:36;;;;;;;1.65;1.55;;;;;;;9.77;57.32;100667.44;4379111;32;33780;-83
2022/12/03 11:34:22;;;;;;;3.50;3.20;;;;;;;9.85;56.72;100662.84;4367205;32;32868;-83
2022/12/03 11:37:16;;;;;;;2.33;2.15;;;;;;;9.76;57.18;100657.81;4383552;32;33214;-82
2022/12/03 11:39:44;;;;;;;5.95;3.67;;;;;;;9.80;56.42;100653.34;4362492;32;32638;-83
2022/12/03 11:42:24;;;;;;;0.80;0.80;;;;;;;9.86;55.84;100654.00;4381395;32;34221;-82
2022/12/03 11:45:04;;;;;;;2.47;2.30;;;;;;;9.35;57.51;100662.41;4382173;32;32450;-83
2022/12/03 11:47:45;;;;;;;3.45;3.25;;;;;;;9.49;57.80;100662.03;4361401;32;33192;-83
2022/12/03 11:50:23;;;;;;;0.60;0.60;;;;;;;9.20;57.99;100662.75;4360982;32;34310;-83
2022/12/03 11:52:59;;;;;;;10.02;2.28;;;;;;;8.88;58.76;100645.97;4384136;32;33808;-83
2022/12/03 11:55:32;;;;;;;2.58;2.28;;;;;;;8.89;58.99;100654.72;4372108;32;32893;-82
2022/12/03 11:58:05;;;;;;;3.62;2.65;;;;;;;9.02;58.71;100655.28;4358361;32;32493;-83
2022/12/03 12:00:32;;;;;;;2.47;1.90;;;;;;;8.95;59.04;100647.53;4356145;32;34035;-82
2022/12/03 12:03:00;;;;;;;0.40;0.40;;;;;;;9.28;58.50;100645.00;4371484;32;32727;-83
2022/12/03 12:05:33;;;;;;;2.08;1.95;;;;;;;8.96;58.37;100648.41;4370219;32;33034;-83